createdAt,value
2017-11-09T00:00:55.281Z,12.27
2017-11-09T00:03:21.957Z,13.40
2017-11-09T00:05:54.024Z,11.40
2017-11-09T00:08:20.231Z,13.63
2017-11-09T00:10:46.548Z,11.57
2017-11-09T00:13:13.068Z,11.10
2017-11-09T00:15:39.278Z,10.50
2017-11-09T00:18:05.529Z,10.43
2017-11-09T00:20:31.734Z,9.20
2017-11-09T00:22:57.937Z,8.80
2017-11-09T00:25:24.854Z,10.93
2017-11-09T00:27:51.052Z,13.30
2017-11-09T00:30:17.279Z,12.73
2017-11-09T00:32:43.526Z,15.00
2017-11-09T00:35:09.737Z,9.83
2017-11-09T00:37:35.930Z,12.00
2017-11-09T00:40:02.488Z,12.77
2017-11-09T00:42:28.751Z,11.83
2017-11-09T00:44:54.958Z,12.67
2017-11-09T00:47:21.223Z,10.27
2017-11-09T00:49:47.423Z,10.47
2017-11-09T00:52:13.610Z,14.43
2017-11-09T00:54:39.942Z,9.27
2017-11-09T00:57:06.141Z,11.70
2017-11-09T00:59:32.353Z,8.73
2017-11-09T01:01:58.621Z,9.83
2017-11-09T01:04:24.827Z,9.70
2017-11-09T01:06:51.020Z,11.20
2017-11-09T01:09:17.271Z,8.83
2017-11-09T01:11:43.459Z,10.27
2017-11-09T01:14:09.999Z,13.37
2017-11-09T01:16:36.687Z,12.63
2017-11-09T01:19:02.898Z,8.67
2017-11-09T01:21:29.103Z,13.13
2017-11-09T01:23:55.676Z,11.93
2017-11-09T01:26:21.888Z,16.80
2017-11-09T01:28:48.150Z,13.17
2017-11-09T01:31:14.539Z,8.63
2017-11-09T01:33:40.728Z,10.40
2017-11-09T01:36:06.931Z,21.03
2017-11-09T01:38:33.272Z,10.53
2017-11-09T01:40:59.459Z,12.83
2017-11-09T01:43:25.654Z,7.37
2017-11-09T01:45:52.297Z,9.43
2017-11-09T01:48:18.741Z,11.40
2017-11-09T01:50:44.930Z,8.83
2017-11-09T01:53:11.254Z,8.67
2017-11-09T01:55:37.443Z,10.80
2017-11-09T01:58:03.622Z,13.27
2017-11-09T02:00:30.232Z,17.67
2017-11-09T02:02:56.434Z,9.83
2017-11-09T02:05:22.631Z,9.83
2017-11-09T02:07:48.977Z,11.77
2017-11-09T02:10:15.178Z,11.37
2017-11-09T02:12:41.392Z,9.43
2017-11-09T02:15:07.968Z,9.63
2017-11-09T02:17:34.172Z,11.60
2017-11-09T02:20:00.446Z,8.10
2017-11-09T02:22:26.705Z,8.60
2017-11-09T02:24:53.158Z,7.67
2017-11-09T02:27:19.598Z,10.73
2017-11-09T02:29:46.300Z,10.10
2017-11-09T02:32:12.737Z,11.60
2017-11-09T02:34:38.926Z,9.80
2017-11-09T02:37:05.253Z,11.43
2017-11-09T02:39:31.488Z,12.43
2017-11-09T02:41:57.718Z,10.47
2017-11-09T02:44:24.331Z,9.53
2017-11-09T02:46:50.549Z,10.00
2017-11-09T02:49:16.735Z,10.00
2017-11-09T02:51:43.055Z,8.90
2017-11-09T02:54:09.340Z,9.37
2017-11-09T02:56:35.881Z,11.03
2017-11-09T02:59:02.525Z,10.30
2017-11-09T03:01:28.990Z,9.00
2017-11-09T03:03:55.193Z,9.83
2017-11-09T03:06:21.460Z,10.10
2017-11-09T03:08:47.659Z,7.87
2017-11-09T03:11:13.863Z,7.83
2017-11-09T03:13:40.192Z,11.83
2017-11-09T03:16:06.394Z,9.93
2017-11-09T03:18:32.856Z,8.13
2017-11-09T03:20:59.192Z,11.77
2017-11-09T03:23:25.723Z,8.90
2017-11-09T03:25:51.914Z,11.53
2017-11-09T03:28:18.473Z,9.87
2017-11-09T03:30:44.764Z,11.97
2017-11-09T03:33:11.216Z,9.60
2017-11-09T03:35:37.547Z,9.23
2017-11-09T03:38:04.014Z,10.43
2017-11-09T03:40:30.225Z,8.47
2017-11-09T03:42:56.796Z,8.17
2017-11-09T03:45:22.996Z,8.83
2017-11-09T03:47:49.201Z,6.57
2017-11-09T03:50:15.448Z,8.37
2017-11-09T03:52:41.635Z,9.63
2017-11-09T03:55:07.850Z,7.47
2017-11-09T03:57:34.095Z,9.83
2017-11-09T04:00:00.310Z,9.47
2017-11-09T04:02:26.808Z,13.20
2017-11-09T04:04:53.153Z,12.50
2017-11-09T04:07:19.670Z,8.20
2017-11-09T04:09:45.870Z,8.70
2017-11-09T04:12:12.113Z,7.83
2017-11-09T04:14:38.398Z,8.67
2017-11-09T04:17:04.597Z,8.83
2017-11-09T04:19:30.883Z,8.00
2017-11-09T04:21:57.098Z,10.27
2017-11-09T04:24:23.300Z,14.43
2017-11-09T04:26:49.539Z,6.97
2017-11-09T04:29:15.732Z,9.00
2017-11-09T04:31:41.922Z,8.67
2017-11-09T04:34:08.199Z,10.10
2017-11-09T04:36:34.395Z,8.20
2017-11-09T04:39:00.588Z,9.77
2017-11-09T04:41:26.840Z,9.10
2017-11-09T04:43:53.039Z,9.27
2017-11-09T04:46:19.243Z,11.50
2017-11-09T04:48:45.539Z,7.67
2017-11-09T04:51:11.723Z,12.70
2017-11-09T04:53:38.211Z,9.60
2017-11-09T04:56:04.747Z,19.00
2017-11-09T04:58:30.930Z,14.10
2017-11-09T05:00:57.118Z,8.37
2017-11-09T05:03:23.379Z,9.10
2017-11-09T05:05:49.564Z,8.83
2017-11-09T05:08:15.762Z,11.63
2017-11-09T05:10:42.116Z,10.70
2017-11-09T05:13:08.310Z,10.50
2017-11-09T05:15:34.501Z,9.27
2017-11-09T05:18:00.920Z,7.50
2017-11-09T05:20:27.118Z,11.07
2017-11-09T05:22:53.299Z,13.67
2017-11-09T05:25:19.555Z,9.63
2017-11-09T05:27:45.742Z,9.33
2017-11-09T05:30:12.000Z,8.90
2017-11-09T05:32:38.682Z,8.40
2017-11-09T05:35:04.890Z,15.63
2017-11-09T05:37:31.107Z,8.17
2017-11-09T05:39:57.774Z,9.03
2017-11-09T05:42:23.977Z,9.33
2017-11-09T05:44:50.157Z,8.00
2017-11-09T05:47:16.409Z,9.17
2017-11-09T05:49:42.626Z,10.20
2017-11-09T05:52:09.119Z,8.63
2017-11-09T05:54:35.457Z,9.30
2017-11-09T05:57:01.654Z,9.50
2017-11-09T05:59:27.850Z,7.80
2017-11-09T06:01:54.119Z,8.87
2017-11-09T06:04:20.330Z,8.40
2017-11-09T06:06:46.558Z,9.30
2017-11-09T06:09:13.135Z,10.67
2017-11-09T06:11:39.568Z,8.83
2017-11-09T06:14:05.755Z,10.13
2017-11-09T06:16:32.356Z,13.50
2017-11-09T06:18:58.554Z,12.23
2017-11-09T06:21:24.765Z,9.80
2017-11-09T06:23:51.020Z,10.43
2017-11-09T06:26:17.335Z,13.97
2017-11-09T06:28:43.781Z,10.77
2017-11-09T06:31:10.419Z,14.20
2017-11-09T06:33:36.728Z,14.10
2017-11-09T06:36:02.954Z,13.40
2017-11-09T06:38:29.291Z,9.77
2017-11-09T06:40:55.734Z,15.70
2017-11-09T06:43:21.924Z,17.53
2017-11-09T06:45:48.815Z,16.00
2017-11-09T06:48:15.010Z,16.70
2017-11-09T06:50:41.202Z,9.60
2017-11-09T06:53:07.459Z,11.40
2017-11-09T06:55:33.720Z,16.73
2017-11-09T06:57:59.921Z,32.83
2017-11-09T07:00:26.264Z,17.50
2017-11-09T07:02:52.492Z,14.07
2017-11-09T07:05:18.687Z,11.30
2017-11-09T07:07:45.052Z,16.03
2017-11-09T07:10:11.256Z,14.90
2017-11-09T07:12:37.484Z,12.47
2017-11-09T07:15:03.737Z,19.40
2017-11-09T07:17:29.950Z,12.80
2017-11-09T07:19:56.284Z,12.83
2017-11-09T07:22:22.615Z,18.83
2017-11-09T07:24:48.817Z,11.27
2017-11-09T07:27:15.047Z,10.57
2017-11-09T07:29:41.611Z,17.87
2017-11-09T07:32:07.820Z,35.80
2017-11-09T07:34:34.595Z,25.70
2017-11-09T07:37:01.332Z,25.83
2017-11-09T07:39:27.638Z,21.43
2017-11-09T07:41:54.095Z,20.80
2017-11-09T07:44:20.363Z,13.33
2017-11-09T07:46:46.564Z,19.40
2017-11-09T07:49:12.764Z,27.50
2017-11-09T07:51:39.119Z,16.23
2017-11-09T07:54:05.459Z,19.93
2017-11-09T07:56:31.671Z,16.53
2017-11-09T07:58:58.293Z,34.03
2017-11-09T08:01:24.479Z,16.30
2017-11-09T08:03:50.679Z,16.70
2017-11-09T08:06:17.218Z,12.53
2017-11-09T08:08:43.409Z,16.63
2017-11-09T08:11:09.608Z,16.50
2017-11-09T08:13:35.906Z,18.33
2017-11-09T08:16:02.116Z,16.00
2017-11-09T08:18:28.322Z,16.93
2017-11-09T08:20:54.920Z,15.13
2017-11-09T08:23:21.160Z,17.67
2017-11-09T08:25:48.122Z,15.43
2017-11-09T08:28:15.707Z,16.40
2017-11-09T08:30:44.415Z,19.43
2017-11-09T08:33:13.276Z,12.43
2017-11-09T08:35:39.692Z,18.20
2017-11-09T08:38:06.216Z,18.07
2017-11-09T08:40:32.417Z,18.60
2017-11-09T08:42:59.167Z,14.90
2017-11-09T08:45:25.476Z,19.90
2017-11-09T08:47:51.677Z,14.40
2017-11-09T08:50:18.174Z,13.07
2017-11-09T08:52:44.380Z,12.90
2017-11-09T08:55:10.584Z,14.93
2017-11-09T08:57:36.862Z,14.53
2017-11-09T09:00:03.292Z,16.90
2017-11-09T09:02:29.483Z,15.67
2017-11-09T09:04:55.835Z,14.83
2017-11-09T09:07:22.031Z,14.63
2017-11-09T09:09:48.240Z,14.33
2017-11-09T09:12:14.559Z,19.40
2017-11-09T09:14:40.824Z,16.43
2017-11-09T09:17:07.330Z,15.80
2017-11-09T09:19:34.022Z,16.00
2017-11-09T09:22:05.046Z,12.90
2017-11-09T09:24:31.463Z,16.90
2017-11-09T09:27:01.727Z,11.90
2017-11-09T09:29:31.794Z,14.30
2017-11-09T09:31:58.160Z,14.77
2017-11-09T09:37:39.128Z,19.13
2017-11-09T09:40:08.166Z,12.67
2017-11-09T09:42:34.426Z,16.17
2017-11-09T09:45:00.690Z,16.00
2017-11-09T09:47:27.322Z,20.20
2017-11-09T09:49:53.562Z,19.03
2017-11-09T09:52:19.785Z,16.37
2017-11-09T09:54:46.115Z,15.70
2017-11-09T09:57:12.419Z,14.93
2017-11-09T09:59:38.627Z,14.27
2017-11-09T10:02:05.705Z,18.13
2017-11-09T10:04:32.199Z,22.67
2017-11-09T10:06:58.396Z,16.60
2017-11-09T10:09:24.723Z,18.80
2017-11-09T10:11:50.947Z,16.60
2017-11-09T10:14:17.202Z,20.07
2017-11-09T10:16:43.511Z,17.77
2017-11-09T10:19:09.804Z,18.33
2017-11-09T10:21:36.070Z,31.03
2017-11-09T10:24:02.438Z,21.50
2017-11-09T10:26:28.646Z,22.93
2017-11-09T10:28:54.856Z,19.53
2017-11-09T10:31:21.531Z,20.43
2017-11-09T10:33:47.977Z,22.60
2017-11-09T10:36:14.413Z,25.67
2017-11-09T10:38:40.664Z,23.63
2017-11-09T10:41:06.894Z,21.50
2017-11-09T10:43:33.093Z,16.50
2017-11-09T10:45:59.368Z,22.23
2017-11-09T10:48:25.581Z,18.53
2017-11-09T10:50:51.835Z,23.30
2017-11-09T10:53:18.550Z,21.70
2017-11-09T10:55:44.735Z,20.53
2017-11-09T10:58:11.170Z,20.87
2017-11-09T11:00:43.924Z,28.50
2017-11-09T11:03:10.142Z,22.30
2017-11-09T11:05:36.400Z,32.43
2017-11-09T11:08:02.995Z,25.97
2017-11-09T11:10:29.289Z,21.53
2017-11-09T11:12:55.648Z,25.83
2017-11-09T11:15:22.006Z,38.07
2017-11-09T11:17:48.217Z,44.77
2017-11-09T11:20:14.470Z,26.70
2017-11-09T11:22:40.960Z,22.13
2017-11-09T11:25:07.242Z,21.07
2017-11-09T11:27:33.518Z,30.27
2017-11-09T11:29:59.852Z,23.00
2017-11-09T11:32:26.157Z,23.80
2017-11-09T11:34:52.402Z,28.03
2017-11-09T11:37:18.736Z,22.57
2017-11-09T11:39:45.095Z,28.57
2017-11-09T11:42:11.370Z,35.93
2017-11-09T11:44:38.343Z,31.03
2017-11-09T11:47:04.615Z,32.63
2017-11-09T11:49:30.886Z,34.00
2017-11-09T11:51:57.603Z,43.10
2017-11-09T11:54:24.189Z,37.30
2017-11-09T11:56:50.446Z,30.30
2017-11-09T11:59:16.768Z,28.50
2017-11-09T12:01:43.065Z,30.73
2017-11-09T12:04:09.352Z,31.97
2017-11-09T12:06:35.979Z,38.63
2017-11-09T12:09:02.303Z,46.10
2017-11-09T12:11:28.582Z,35.30
2017-11-09T12:13:54.907Z,33.10
2017-11-09T12:16:21.186Z,39.43
2017-11-09T12:18:47.492Z,36.93
2017-11-09T12:21:13.855Z,32.60
2017-11-09T12:23:40.127Z,40.13
2017-11-09T12:26:06.390Z,38.97
2017-11-09T12:28:32.717Z,31.67
2017-11-09T12:31:02.889Z,55.37
2017-11-09T12:33:29.782Z,34.07
2017-11-09T12:35:56.420Z,36.83
2017-11-09T12:38:22.852Z,34.40
2017-11-09T12:40:49.174Z,30.27
2017-11-09T12:43:15.591Z,36.40
2017-11-09T12:45:41.884Z,30.80
2017-11-09T12:48:08.148Z,29.87
2017-11-09T12:50:34.540Z,35.43
2017-11-09T12:53:00.792Z,38.00
2017-11-09T12:55:27.091Z,30.50
2017-11-09T12:57:53.840Z,40.67
2017-11-09T13:00:20.257Z,30.90
2017-11-09T13:02:46.536Z,36.90
2017-11-09T13:05:12.920Z,37.37
2017-11-09T13:07:39.272Z,32.97
2017-11-09T13:10:06.006Z,34.37
2017-11-09T13:12:32.264Z,30.70
2017-11-09T13:14:58.582Z,35.60
2017-11-09T13:17:24.873Z,33.70
2017-11-09T13:19:51.198Z,33.37
2017-11-09T13:22:17.499Z,34.17
2017-11-09T13:24:43.726Z,34.17
2017-11-09T13:27:10.105Z,35.23
2017-11-09T13:29:36.941Z,32.67
2017-11-09T13:32:03.464Z,39.77
2017-11-09T13:34:38.568Z,29.37
2017-11-09T13:37:04.867Z,30.40
2017-11-09T13:39:31.170Z,29.73
2017-11-09T13:41:57.507Z,26.53
2017-11-09T13:44:23.787Z,32.73
2017-11-09T13:46:50.046Z,30.60
2017-11-09T13:49:16.358Z,31.80
2017-11-09T13:51:42.665Z,27.90
2017-11-09T13:54:09.377Z,40.63
2017-11-09T13:56:35.680Z,40.57
2017-11-09T13:59:01.951Z,43.03
2017-11-09T14:01:28.259Z,35.90
2017-11-09T14:03:54.848Z,33.27
2017-11-09T14:06:21.124Z,36.53
2017-11-09T14:08:47.527Z,32.97
2017-11-09T14:11:13.824Z,33.33
2017-11-09T14:13:40.121Z,34.27
2017-11-09T14:16:06.430Z,40.13
2017-11-09T14:18:32.696Z,34.83
2017-11-09T14:20:59.012Z,41.33
2017-11-09T14:23:25.675Z,29.77
2017-11-09T14:25:51.926Z,39.27
2017-11-09T14:28:18.183Z,28.50
2017-11-09T14:30:44.499Z,33.30
2017-11-09T14:33:10.760Z,32.13
2017-11-09T14:35:37.049Z,33.70
2017-11-09T14:38:03.417Z,33.43
2017-11-09T14:40:29.664Z,38.30
2017-11-09T14:42:56.005Z,30.37
2017-11-09T14:45:22.365Z,40.50
2017-11-09T14:47:48.605Z,27.33
2017-11-09T14:50:15.227Z,26.90
2017-11-09T14:52:41.561Z,30.57
2017-11-09T14:55:07.843Z,31.17
2017-11-09T14:57:34.143Z,33.50
2017-11-09T15:00:00.643Z,28.90
2017-11-09T15:02:26.945Z,26.63
2017-11-09T15:04:53.198Z,35.50
2017-11-09T15:07:19.633Z,26.60
2017-11-09T15:09:45.944Z,24.43
2017-11-09T15:12:12.508Z,27.30
2017-11-09T15:14:39.261Z,26.70
2017-11-09T15:17:05.866Z,31.50
2017-11-09T15:19:32.207Z,35.70
2017-11-09T15:21:58.652Z,30.70
2017-11-09T15:24:24.973Z,26.87
2017-11-09T15:26:51.323Z,27.97
2017-11-09T15:29:18.115Z,25.97
2017-11-09T15:31:46.428Z,28.53
2017-11-09T15:34:12.757Z,27.37
2017-11-09T15:36:39.142Z,28.57
2017-11-09T15:39:05.418Z,27.87
2017-11-09T15:41:31.636Z,26.83
2017-11-09T15:43:57.979Z,30.97
2017-11-09T15:46:24.241Z,27.40
2017-11-09T15:48:50.745Z,27.60
2017-11-09T15:51:17.487Z,28.77
2017-11-09T15:53:43.755Z,30.70
2017-11-09T15:56:10.041Z,30.10
2017-11-09T15:58:36.392Z,25.50
2017-11-09T16:01:02.704Z,29.40
2017-11-09T16:03:28.971Z,27.60
2017-11-09T16:05:55.312Z,27.60
2017-11-09T16:08:21.613Z,33.70
2017-11-09T16:10:47.916Z,30.33
2017-11-09T16:13:14.253Z,28.80
2017-11-09T16:15:40.650Z,27.90
2017-11-09T16:18:06.913Z,28.00
2017-11-09T16:20:33.301Z,32.27
2017-11-09T16:22:59.574Z,25.43
2017-11-09T16:25:25.855Z,31.20
2017-11-09T16:27:52.249Z,30.97
2017-11-09T16:30:18.524Z,31.27
2017-11-09T16:32:44.793Z,31.13
2017-11-09T16:35:11.193Z,26.87
2017-11-09T16:37:37.466Z,38.40
2017-11-09T16:40:03.752Z,27.73
2017-11-09T16:42:36.025Z,32.00
2017-11-09T16:45:02.547Z,33.10
2017-11-09T16:47:28.806Z,27.13
2017-11-09T16:49:55.254Z,33.70
2017-11-09T16:52:21.615Z,31.40
2017-11-09T16:54:47.887Z,28.13
2017-11-09T16:57:14.220Z,24.40
2017-11-09T16:59:40.470Z,32.80
2017-11-09T17:02:06.829Z,32.83
2017-11-09T17:04:33.592Z,42.20
2017-11-09T17:06:59.882Z,32.07
2017-11-09T17:09:26.514Z,29.23
2017-11-09T17:11:52.965Z,25.60
2017-11-09T17:14:19.590Z,27.90
2017-11-09T17:16:45.871Z,30.53
2017-11-09T17:19:12.277Z,30.63
2017-11-09T17:21:38.559Z,30.87
2017-11-09T17:24:04.858Z,33.50
2017-11-09T17:26:31.541Z,28.40
2017-11-09T17:28:57.789Z,26.90
2017-11-09T17:31:24.145Z,31.83
2017-11-09T17:33:50.534Z,29.93
2017-11-09T17:36:16.786Z,30.83
2017-11-09T17:38:43.037Z,29.83
2017-11-09T17:41:11.460Z,29.80
2017-11-09T17:43:37.726Z,28.80
2017-11-09T17:46:04.081Z,33.60
2017-11-09T17:48:31.141Z,28.93
2017-11-09T17:50:57.422Z,32.43
2017-11-09T17:53:23.678Z,31.40
2017-11-09T17:55:50.091Z,31.30
2017-11-09T17:58:16.366Z,34.93
2017-11-09T18:00:42.718Z,34.10
2017-11-09T18:03:10.224Z,33.63
2017-11-09T18:05:36.499Z,36.23
2017-11-09T18:08:02.788Z,39.90
2017-11-09T18:10:29.388Z,36.43
2017-11-09T18:12:55.636Z,39.60
2017-11-09T18:15:21.966Z,30.37
2017-11-09T18:17:48.678Z,42.13
2017-11-09T18:20:14.960Z,51.00
2017-11-09T18:22:43.300Z,25.37
2017-11-09T18:25:09.739Z,30.57
2017-11-09T18:27:36.017Z,33.87
2017-11-09T18:30:02.317Z,30.93
2017-11-09T18:32:28.745Z,26.23
2017-11-09T18:34:55.001Z,33.50
2017-11-09T18:37:21.320Z,31.90
2017-11-09T18:39:47.734Z,34.83
2017-11-09T18:42:13.985Z,33.70
2017-11-09T18:44:40.333Z,37.87
2017-11-09T18:47:06.642Z,39.90
2017-11-09T18:49:32.925Z,31.23
2017-11-09T18:51:59.199Z,27.17
2017-11-09T18:54:25.525Z,26.30
2017-11-09T18:56:51.798Z,28.87
2017-11-09T18:59:18.075Z,32.20
2017-11-09T19:01:44.646Z,29.43
2017-11-09T19:04:10.942Z,29.33
2017-11-09T19:06:37.196Z,39.20
2017-11-09T19:09:03.637Z,34.07
2017-11-09T19:11:29.945Z,27.40
2017-11-09T19:13:56.216Z,33.63
2017-11-09T19:16:23.070Z,27.67
2017-11-09T19:18:49.348Z,31.20
2017-11-09T19:21:15.847Z,29.90
2017-11-09T19:23:42.171Z,26.13
2017-11-09T19:26:08.473Z,30.87
2017-11-09T19:28:34.793Z,28.90
2017-11-09T19:31:01.193Z,37.00
2017-11-09T19:33:27.597Z,30.93
2017-11-09T19:35:53.884Z,28.73
2017-11-09T19:38:20.466Z,26.33
2017-11-09T19:40:46.983Z,31.83
2017-11-09T19:43:13.247Z,27.97
2017-11-09T19:45:39.589Z,27.50
2017-11-09T19:48:05.837Z,25.27
2017-11-09T19:50:32.190Z,25.50
2017-11-09T19:52:58.821Z,32.63
2017-11-09T19:55:25.128Z,27.97
2017-11-09T19:57:51.393Z,25.10
2017-11-09T20:00:17.727Z,24.23
2017-11-09T20:02:44.029Z,24.40
2017-11-09T20:05:10.305Z,23.20
2017-11-09T20:07:36.820Z,23.90
2017-11-09T20:10:03.146Z,27.33
2017-11-09T20:12:29.703Z,20.40
2017-11-09T20:14:56.501Z,25.47
2017-11-09T20:17:22.759Z,25.57
2017-11-09T20:19:49.048Z,26.87
2017-11-09T20:22:15.359Z,21.03
2017-11-09T20:24:41.655Z,24.17
2017-11-09T20:27:08.001Z,21.27
2017-11-09T20:29:34.688Z,22.47
2017-11-09T20:32:01.207Z,26.13
2017-11-09T20:34:27.544Z,27.93
2017-11-09T20:36:54.249Z,18.40
2017-11-09T20:39:20.470Z,20.53
2017-11-09T20:41:46.775Z,19.40
2017-11-09T20:44:13.536Z,36.83
2017-11-09T20:46:39.829Z,28.60
2017-11-09T20:49:06.271Z,20.13
2017-11-09T20:51:32.600Z,21.37
2017-11-09T20:53:58.875Z,23.60
2017-11-09T20:56:25.202Z,20.67
2017-11-09T20:58:51.942Z,20.90
2017-11-09T21:01:18.230Z,23.83
2017-11-09T21:03:44.503Z,25.43
2017-11-09T21:06:10.832Z,25.93
2017-11-09T21:08:37.278Z,19.20
2017-11-09T21:11:03.632Z,23.80
2017-11-09T21:13:30.287Z,21.33
2017-11-09T21:15:56.774Z,17.80
2017-11-09T21:18:23.076Z,18.83
2017-11-09T21:20:49.878Z,25.80
2017-11-09T21:23:16.142Z,19.40
2017-11-09T21:25:42.418Z,19.00
2017-11-09T21:28:09.045Z,17.07
2017-11-09T21:30:35.318Z,18.60
2017-11-09T21:33:01.593Z,21.00
2017-11-09T21:35:27.876Z,20.03
2017-11-09T21:37:54.285Z,19.27
2017-11-09T21:40:20.818Z,18.27
2017-11-09T21:42:47.326Z,15.73
2017-11-09T21:45:14.046Z,19.60
2017-11-09T21:47:40.334Z,15.97
2017-11-09T21:50:06.759Z,14.80
2017-11-09T21:52:33.190Z,19.40
2017-11-09T21:54:59.506Z,17.47
2017-11-09T21:57:25.784Z,18.80
2017-11-09T21:59:52.300Z,25.77
2017-11-09T22:02:18.563Z,14.87
2017-11-09T22:04:44.959Z,19.13
2017-11-09T22:07:11.645Z,13.83
2017-11-09T22:09:37.916Z,15.63
2017-11-09T22:12:04.185Z,19.17
2017-11-09T22:14:30.522Z,17.13
2017-11-09T22:16:56.854Z,15.20
2017-11-09T22:19:23.361Z,13.90
2017-11-09T22:21:49.755Z,14.67
2017-11-09T22:24:16.092Z,18.33
2017-11-09T22:26:42.419Z,14.90
2017-11-09T22:29:09.337Z,13.53
2017-11-09T22:31:35.637Z,17.17
2017-11-09T22:34:02.145Z,14.50
2017-11-09T22:36:28.561Z,16.97
2017-11-09T22:38:54.942Z,15.10
2017-11-09T22:41:21.234Z,13.90
2017-11-09T22:43:47.657Z,16.00
2017-11-09T22:46:13.953Z,17.73
2017-11-09T22:48:42.757Z,15.40
2017-11-09T22:51:09.187Z,11.70
2017-11-09T22:53:35.481Z,12.37
2017-11-09T22:56:01.771Z,18.80
2017-11-09T22:58:28.547Z,12.50
2017-11-09T23:00:54.869Z,17.80
2017-11-09T23:03:21.153Z,19.83
2017-11-09T23:05:47.689Z,13.93
2017-11-09T23:08:14.169Z,10.93
2017-11-09T23:10:40.509Z,17.57
2017-11-09T23:13:07.041Z,14.63
2017-11-09T23:15:33.368Z,11.30
2017-11-09T23:18:01.796Z,14.73
2017-11-09T23:20:28.234Z,18.03
2017-11-09T23:22:54.499Z,12.23
2017-11-09T23:25:20.794Z,13.17
2017-11-09T23:27:47.072Z,12.27
2017-11-09T23:30:13.320Z,12.90
2017-11-09T23:32:39.880Z,18.07
2017-11-09T23:35:06.134Z,17.90
2017-11-09T23:37:32.385Z,12.57
2017-11-09T23:39:58.917Z,13.60
2017-11-09T23:42:25.154Z,13.83
2017-11-09T23:44:51.628Z,15.47
2017-11-09T23:47:18.006Z,13.13
2017-11-09T23:49:44.355Z,11.57
2017-11-09T23:52:10.593Z,13.60
2017-11-09T23:54:36.987Z,19.70
2017-11-09T23:57:03.226Z,13.87
2017-11-09T23:59:29.461Z,12.73
